sensor_id;sensor_type;location;lat;lon;timestamp;pressure;altitude;pressure_sealevel;temperature;humidity
51986;BME280;38002;53.296;6.600;2023-12-20T00:01:40;101433.59;;;5.28;100.00
51986;BME280;38002;53.296;6.600;2023-12-20T00:06:41;101416.78;;;5.24;100.00
51986;BME280;38002;53.296;6.600;2023-12-20T00:11:41;101415.06;;;5.23;100.00
51986;BME280;38002;53.296;6.600;2023-12-20T00:16:42;101415.19;;;5.22;100.00
51986;BME280;38002;53.296;6.600;2023-12-20T00:21:43;101422.44;;;5.21;100.00
51986;BME280;38002;53.296;6.600;2023-12-20T00:26:43;101408.19;;;5.19;100.00
51986;BME280;38002;53.296;6.600;2023-12-20T00:31:43;101398.38;;;5.18;100.00
51986;BME280;38002;53.296;6.600;2023-12-20T00:36:44;101410.00;;;5.19;100.00
51986;BME280;38002;53.296;6.600;2023-12-20T00:41:45;101412.72;;;5.19;100.00
51986;BME280;38002;53.296;6.600;2023-12-20T00:46:45;101418.00;;;5.20;100.00
51986;BME280;38002;53.296;6.600;2023-12-20T00:51:46;101415.94;;;5.24;100.00
51986;BME280;38002;53.296;6.600;2023-12-20T00:56:48;101398.44;;;5.29;100.00
51986;BME280;38002;53.296;6.600;2023-12-20T01:01:48;101384.63;;;5.34;100.00
51986;BME280;38002;53.296;6.600;2023-12-20T01:06:48;101381.78;;;5.35;100.00
51986;BME280;38002;53.296;6.600;2023-12-20T01:11:49;101378.13;;;5.36;100.00
51986;BME280;38002;53.296;6.600;2023-12-20T01:16:49;101361.06;;;5.36;100.00
51986;BME280;38002;53.296;6.600;2023-12-20T01:21:50;101370.28;;;5.33;100.00
51986;BME280;38002;53.296;6.600;2023-12-20T01:26:50;101374.81;;;5.33;100.00
51986;BME280;38002;53.296;6.600;2023-12-20T01:31:51;101385.59;;;5.33;100.00
51986;BME280;38002;53.296;6.600;2023-12-20T01:36:51;101388.91;;;5.36;100.00
51986;BME280;38002;53.296;6.600;2023-12-20T01:41:52;101377.03;;;5.39;100.00
51986;BME280;38002;53.296;6.600;2023-12-20T01:46:52;101364.78;;;5.35;100.00
51986;BME280;38002;53.296;6.600;2023-12-20T01:51:53;101356.53;;;5.36;100.00
51986;BME280;38002;53.296;6.600;2023-12-20T01:56:53;101357.66;;;5.34;100.00
51986;BME280;38002;53.296;6.600;2023-12-20T02:01:54;101346.00;;;5.33;100.00
51986;BME280;38002;53.296;6.600;2023-12-20T02:06:56;101347.72;;;5.34;100.00
51986;BME280;38002;53.296;6.600;2023-12-20T02:11:56;101338.63;;;5.35;100.00
51986;BME280;38002;53.296;6.600;2023-12-20T02:16:57;101327.41;;;5.41;100.00
51986;BME280;38002;53.296;6.600;2023-12-20T02:22:10;101328.88;;;5.45;100.00
51986;BME280;38002;53.296;6.600;2023-12-20T02:27:11;101318.09;;;5.45;100.00
51986;BME280;38002;53.296;6.600;2023-12-20T02:32:11;101323.50;;;5.45;100.00
51986;BME280;38002;53.296;6.600;2023-12-20T02:37:12;101304.09;;;5.40;100.00
51986;BME280;38002;53.296;6.600;2023-12-20T02:42:13;101315.78;;;5.52;100.00
51986;BME280;38002;53.296;6.600;2023-12-20T02:47:13;101312.84;;;5.55;100.00
51986;BME280;38002;53.296;6.600;2023-12-20T02:52:14;101298.25;;;5.58;100.00
51986;BME280;38002;53.296;6.600;2023-12-20T02:57:14;101292.41;;;5.64;100.00
51986;BME280;38002;53.296;6.600;2023-12-20T03:02:15;101278.75;;;5.65;100.00
51986;BME280;38002;53.296;6.600;2023-12-20T03:07:15;101278.66;;;5.67;100.00
51986;BME280;38002;53.296;6.600;2023-12-20T03:12:16;101279.53;;;5.67;100.00
51986;BME280;38002;53.296;6.600;2023-12-20T03:17:16;101276.94;;;5.66;100.00
51986;BME280;38002;53.296;6.600;2023-12-20T03:22:17;101279.78;;;5.64;100.00
51986;BME280;38002;53.296;6.600;2023-12-20T03:27:17;101283.81;;;5.70;100.00
51986;BME280;38002;53.296;6.600;2023-12-20T03:32:18;101253.03;;;5.72;100.00
51986;BME280;38002;53.296;6.600;2023-12-20T03:37:18;101246.19;;;5.68;100.00
51986;BME280;38002;53.296;6.600;2023-12-20T03:42:19;101253.75;;;5.63;100.00
51986;BME280;38002;53.296;6.600;2023-12-20T03:47:19;101245.53;;;5.54;100.00
51986;BME280;38002;53.296;6.600;2023-12-20T03:52:20;101235.84;;;5.51;100.00
51986;BME280;38002;53.296;6.600;2023-12-20T03:57:20;101228.38;;;5.55;100.00
51986;BME280;38002;53.296;6.600;2023-12-20T04:02:20;101236.97;;;5.60;100.00
51986;BME280;38002;53.296;6.600;2023-12-20T04:07:21;101234.88;;;5.63;100.00
51986;BME280;38002;53.296;6.600;2023-12-20T04:12:22;101222.00;;;5.67;100.00
51986;BME280;38002;53.296;6.600;2023-12-20T04:17:23;101234.41;;;5.69;100.00
51986;BME280;38002;53.296;6.600;2023-12-20T04:22:23;101222.50;;;5.72;100.00
51986;BME280;38002;53.296;6.600;2023-12-20T04:27:24;101228.88;;;5.71;100.00
51986;BME280;38002;53.296;6.600;2023-12-20T04:32:24;101217.00;;;5.73;100.00
51986;BME280;38002;53.296;6.600;2023-12-20T04:37:24;101202.03;;;5.80;100.00
51986;BME280;38002;53.296;6.600;2023-12-20T04:42:25;101208.66;;;5.87;100.00
51986;BME280;38002;53.296;6.600;2023-12-20T04:47:25;101198.34;;;5.92;100.00
51986;BME280;38002;53.296;6.600;2023-12-20T04:52:26;101208.41;;;6.02;100.00
51986;BME280;38002;53.296;6.600;2023-12-20T04:57:26;101217.59;;;6.10;100.00
51986;BME280;38002;53.296;6.600;2023-12-20T05:02:27;101211.56;;;6.18;100.00
51986;BME280;38002;53.296;6.600;2023-12-20T05:07:27;101219.19;;;6.24;100.00
51986;BME280;38002;53.296;6.600;2023-12-20T05:12:28;101221.50;;;6.28;100.00
51986;BME280;38002;53.296;6.600;2023-12-20T05:17:28;101208.72;;;6.30;100.00
51986;BME280;38002;53.296;6.600;2023-12-20T05:22:29;101203.81;;;6.35;100.00
51986;BME280;38002;53.296;6.600;2023-12-20T05:27:29;101208.22;;;6.36;100.00
51986;BME280;38002;53.296;6.600;2023-12-20T05:32:30;101204.28;;;6.41;100.00
51986;BME280;38002;53.296;6.600;2023-12-20T05:37:31;101200.94;;;6.48;100.00
51986;BME280;38002;53.296;6.600;2023-12-20T05:42:31;101187.31;;;6.50;100.00
51986;BME280;38002;53.296;6.600;2023-12-20T05:47:32;101169.97;;;6.52;100.00
51986;BME280;38002;53.296;6.600;2023-12-20T05:52:32;101189.91;;;6.51;100.00
51986;BME280;38002;53.296;6.600;2023-12-20T05:57:33;101185.69;;;6.58;100.00
51986;BME280;38002;53.296;6.600;2023-12-20T06:02:33;101167.63;;;6.59;100.00
51986;BME280;38002;53.296;6.600;2023-12-20T06:07:34;101175.22;;;6.65;100.00
51986;BME280;38002;53.296;6.600;2023-12-20T06:12:34;101167.72;;;6.68;100.00
51986;BME280;38002;53.296;6.600;2023-12-20T06:17:36;101164.00;;;6.69;100.00
51986;BME280;38002;53.296;6.600;2023-12-20T06:22:36;101160.22;;;6.72;100.00
51986;BME280;38002;53.296;6.600;2023-12-20T06:27:37;101160.06;;;6.73;100.00
51986;BME280;38002;53.296;6.600;2023-12-20T06:32:37;101148.00;;;6.77;100.00
51986;BME280;38002;53.296;6.600;2023-12-20T06:37:39;101141.63;;;6.78;100.00
51986;BME280;38002;53.296;6.600;2023-12-20T06:42:42;101134.09;;;6.82;100.00
51986;BME280;38002;53.296;6.600;2023-12-20T06:47:43;101125.88;;;6.83;100.00
51986;BME280;38002;53.296;6.600;2023-12-20T06:52:43;101121.06;;;6.87;100.00
51986;BME280;38002;53.296;6.600;2023-12-20T06:57:44;101126.06;;;6.92;100.00
51986;BME280;38002;53.296;6.600;2023-12-20T07:02:44;101115.13;;;6.93;100.00
51986;BME280;38002;53.296;6.600;2023-12-20T07:07:45;101113.13;;;6.95;100.00
51986;BME280;38002;53.296;6.600;2023-12-20T07:12:46;101114.72;;;6.98;100.00
51986;BME280;38002;53.296;6.600;2023-12-20T07:17:49;101107.22;;;7.01;100.00
51986;BME280;38002;53.296;6.600;2023-12-20T07:22:49;101105.94;;;7.05;100.00
51986;BME280;38002;53.296;6.600;2023-12-20T07:27:50;101113.78;;;7.08;100.00
51986;BME280;38002;53.296;6.600;2023-12-20T07:32:51;101107.97;;;7.13;100.00
51986;BME280;38002;53.296;6.600;2023-12-20T07:37:52;101113.25;;;7.14;100.00
51986;BME280;38002;53.296;6.600;2023-12-20T07:42:53;101112.00;;;7.18;100.00
51986;BME280;38002;53.296;6.600;2023-12-20T07:47:53;101118.84;;;7.22;100.00
51986;BME280;38002;53.296;6.600;2023-12-20T08:15:41;101119.78;;;7.33;100.00
51986;BME280;38002;53.296;6.600;2023-12-20T08:20:42;101116.50;;;7.39;100.00
51986;BME280;38002;53.296;6.600;2023-12-20T08:25:43;101174.75;;;7.43;100.00
51986;BME280;38002;53.296;6.600;2023-12-20T08:30:43;101199.78;;;7.14;100.00
51986;BME280;38002;53.296;6.600;2023-12-20T08:35:44;101198.34;;;6.58;100.00
51986;BME280;38002;53.296;6.600;2023-12-20T08:40:44;101192.56;;;6.19;100.00
51986;BME280;38002;53.296;6.600;2023-12-20T08:45:45;101209.91;;;5.95;100.00
51986;BME280;38002;53.296;6.600;2023-12-20T08:50:45;101209.00;;;5.83;100.00
51986;BME280;38002;53.296;6.600;2023-12-20T08:55:46;101179.94;;;5.75;100.00
51986;BME280;38002;53.296;6.600;2023-12-20T09:00:47;101194.41;;;5.74;100.00
51986;BME280;38002;53.296;6.600;2023-12-20T09:05:47;101224.94;;;5.75;100.00
51986;BME280;38002;53.296;6.600;2023-12-20T09:10:48;101226.31;;;5.69;100.00
51986;BME280;38002;53.296;6.600;2023-12-20T09:15:48;101213.19;;;5.65;100.00
51986;BME280;38002;53.296;6.600;2023-12-20T09:20:49;101217.84;;;5.63;100.00
51986;BME280;38002;53.296;6.600;2023-12-20T09:25:49;101218.69;;;5.63;100.00
51986;BME280;38002;53.296;6.600;2023-12-20T09:30:50;101220.16;;;5.67;100.00
51986;BME280;38002;53.296;6.600;2023-12-20T09:35:50;101229.13;;;5.68;100.00
51986;BME280;38002;53.296;6.600;2023-12-20T09:40:51;101235.13;;;5.71;100.00
51986;BME280;38002;53.296;6.600;2023-12-20T09:45:53;101258.69;;;5.80;100.00
51986;BME280;38002;53.296;6.600;2023-12-20T09:50:54;101247.53;;;5.85;100.00
51986;BME280;38002;53.296;6.600;2023-12-20T09:55:58;101255.41;;;5.88;100.00
51986;BME280;38002;53.296;6.600;2023-12-20T10:01:02;101258.09;;;5.88;100.00
51986;BME280;38002;53.296;6.600;2023-12-20T10:06:04;101248.78;;;5.92;100.00
51986;BME280;38002;53.296;6.600;2023-12-20T10:11:05;101266.09;;;6.12;100.00
51986;BME280;38002;53.296;6.600;2023-12-20T10:16:05;101261.78;;;6.20;100.00
51986;BME280;38002;53.296;6.600;2023-12-20T10:21:06;101262.72;;;6.30;100.00
51986;BME280;38002;53.296;6.600;2023-12-20T10:26:10;101252.66;;;6.44;100.00
51986;BME280;38002;53.296;6.600;2023-12-20T10:31:26;101240.44;;;6.60;100.00
51986;BME280;38002;53.296;6.600;2023-12-20T10:36:33;101234.75;;;6.74;100.00
51986;BME280;38002;53.296;6.600;2023-12-20T10:41:35;101229.09;;;6.77;100.00
51986;BME280;38002;53.296;6.600;2023-12-20T10:46:41;101231.66;;;6.79;100.00
51986;BME280;38002;53.296;6.600;2023-12-20T10:51:48;101222.31;;;6.83;100.00
51986;BME280;38002;53.296;6.600;2023-12-20T10:56:51;101211.47;;;6.94;100.00
51986;BME280;38002;53.296;6.600;2023-12-20T11:01:54;101204.84;;;7.08;100.00
51986;BME280;38002;53.296;6.600;2023-12-20T11:12:46;101214.97;;;7.26;100.00
51986;BME280;38002;53.296;6.600;2023-12-20T11:17:57;101213.25;;;7.25;100.00
51986;BME280;38002;53.296;6.600;2023-12-20T11:22:57;101203.09;;;7.18;100.00
51986;BME280;38002;53.296;6.600;2023-12-20T11:28:07;101194.13;;;7.17;100.00
51986;BME280;38002;53.296;6.600;2023-12-20T11:33:09;101183.50;;;7.25;100.00
51986;BME280;38002;53.296;6.600;2023-12-20T11:38:10;101185.47;;;7.23;100.00
51986;BME280;38002;53.296;6.600;2023-12-20T11:43:11;101187.44;;;7.21;100.00
51986;BME280;38002;53.296;6.600;2023-12-20T11:48:12;101187.44;;;7.21;100.00
51986;BME280;38002;53.296;6.600;2023-12-20T11:53:13;101179.59;;;7.18;100.00
51986;BME280;38002;53.296;6.600;2023-12-20T11:58:17;101168.31;;;7.13;100.00
51986;BME280;38002;53.296;6.600;2023-12-20T12:03:17;101169.06;;;7.15;100.00
51986;BME280;38002;53.296;6.600;2023-12-20T12:08:18;101156.41;;;7.16;100.00
51986;BME280;38002;53.296;6.600;2023-12-20T12:13:18;101150.38;;;7.12;100.00
51986;BME280;38002;53.296;6.600;2023-12-20T12:18:19;101148.06;;;7.08;100.00
51986;BME280;38002;53.296;6.600;2023-12-20T12:23:23;101151.91;;;7.05;100.00
51986;BME280;38002;53.296;6.600;2023-12-20T12:28:27;101149.22;;;7.05;100.00
51986;BME280;38002;53.296;6.600;2023-12-20T12:33:33;101143.91;;;7.04;100.00
51986;BME280;38002;53.296;6.600;2023-12-20T12:38:34;101140.50;;;7.02;100.00
51986;BME280;38002;53.296;6.600;2023-12-20T12:43:34;101141.09;;;7.05;100.00
51986;BME280;38002;53.296;6.600;2023-12-20T12:48:35;101139.13;;;7.07;100.00
51986;BME280;38002;53.296;6.600;2023-12-20T12:53:35;101134.03;;;7.14;100.00
51986;BME280;38002;53.296;6.600;2023-12-20T12:58:36;101151.72;;;7.18;100.00
51986;BME280;38002;53.296;6.600;2023-12-20T13:03:37;101139.16;;;7.17;100.00
51986;BME280;38002;53.296;6.600;2023-12-20T13:08:38;101134.91;;;7.14;100.00
51986;BME280;38002;53.296;6.600;2023-12-20T13:13:38;101130.47;;;7.13;100.00
51986;BME280;38002;53.296;6.600;2023-12-20T13:18:39;101128.91;;;7.11;100.00
51986;BME280;38002;53.296;6.600;2023-12-20T13:23:42;101113.53;;;7.11;100.00
51986;BME280;38002;53.296;6.600;2023-12-20T13:28:43;101120.63;;;7.12;100.00
51986;BME280;38002;53.296;6.600;2023-12-20T13:33:44;101118.09;;;7.11;100.00
51986;BME280;38002;53.296;6.600;2023-12-20T13:38:44;101109.22;;;7.09;100.00
51986;BME280;38002;53.296;6.600;2023-12-20T13:43:45;101098.81;;;7.04;100.00
51986;BME280;38002;53.296;6.600;2023-12-20T13:48:45;101093.97;;;6.98;100.00
51986;BME280;38002;53.296;6.600;2023-12-20T13:53:46;101105.03;;;6.95;100.00
51986;BME280;38002;53.296;6.600;2023-12-20T13:58:48;101088.38;;;6.90;100.00
51986;BME280;38002;53.296;6.600;2023-12-20T14:03:50;101088.63;;;6.87;100.00
51986;BME280;38002;53.296;6.600;2023-12-20T14:08:51;101086.19;;;6.84;100.00
51986;BME280;38002;53.296;6.600;2023-12-20T14:13:51;101086.47;;;6.81;100.00
51986;BME280;38002;53.296;6.600;2023-12-20T14:18:52;101078.59;;;6.78;100.00
51986;BME280;38002;53.296;6.600;2023-12-20T14:23:53;101089.41;;;6.78;100.00
51986;BME280;38002;53.296;6.600;2023-12-20T14:28:54;101098.78;;;6.74;100.00
51986;BME280;38002;53.296;6.600;2023-12-20T14:33:55;101117.97;;;6.71;100.00
51986;BME280;38002;53.296;6.600;2023-12-20T14:38:55;101109.53;;;6.64;100.00
51986;BME280;38002;53.296;6.600;2023-12-20T14:43:56;101092.97;;;6.58;100.00
51986;BME280;38002;53.296;6.600;2023-12-20T14:48:56;101083.09;;;6.47;100.00
51986;BME280;38002;53.296;6.600;2023-12-20T14:53:57;101080.03;;;6.41;100.00
51986;BME280;38002;53.296;6.600;2023-12-20T14:58:57;101064.22;;;6.36;100.00
51986;BME280;38002;53.296;6.600;2023-12-20T15:03:58;101068.28;;;6.30;100.00
51986;BME280;38002;53.296;6.600;2023-12-20T15:08:59;101070.56;;;6.25;100.00
51986;BME280;38002;53.296;6.600;2023-12-20T15:14:00;101051.88;;;6.22;100.00
51986;BME280;38002;53.296;6.600;2023-12-20T15:19:01;101040.22;;;6.22;100.00
51986;BME280;38002;53.296;6.600;2023-12-20T15:24:01;101054.59;;;6.22;100.00
51986;BME280;38002;53.296;6.600;2023-12-20T15:29:14;101058.16;;;6.23;100.00
51986;BME280;38002;53.296;6.600;2023-12-20T15:34:15;101050.91;;;6.23;100.00
51986;BME280;38002;53.296;6.600;2023-12-20T15:39:15;101050.31;;;6.20;100.00
51986;BME280;38002;53.296;6.600;2023-12-20T15:44:16;101043.78;;;6.22;100.00
51986;BME280;38002;53.296;6.600;2023-12-20T15:49:16;101042.94;;;6.22;100.00
51986;BME280;38002;53.296;6.600;2023-12-20T15:54:19;101029.44;;;6.22;100.00
51986;BME280;38002;53.296;6.600;2023-12-20T15:59:19;101027.59;;;6.22;100.00
51986;BME280;38002;53.296;6.600;2023-12-20T16:04:20;101019.50;;;6.22;100.00
51986;BME280;38002;53.296;6.600;2023-12-20T16:09:20;101009.44;;;6.24;100.00
51986;BME280;38002;53.296;6.600;2023-12-20T16:14:20;101002.31;;;6.23;100.00
51986;BME280;38002;53.296;6.600;2023-12-20T16:19:21;100987.81;;;6.24;100.00
51986;BME280;38002;53.296;6.600;2023-12-20T16:24:22;100981.44;;;6.25;100.00
51986;BME280;38002;53.296;6.600;2023-12-20T16:29:22;100976.63;;;6.29;100.00
51986;BME280;38002;53.296;6.600;2023-12-20T16:34:22;100968.25;;;6.32;100.00
51986;BME280;38002;53.296;6.600;2023-12-20T16:39:23;100946.78;;;6.30;100.00
51986;BME280;38002;53.296;6.600;2023-12-20T16:44:24;100947.13;;;6.37;100.00
51986;BME280;38002;53.296;6.600;2023-12-20T16:49:24;100938.03;;;6.38;100.00
51986;BME280;38002;53.296;6.600;2023-12-20T16:54:24;100926.09;;;6.41;100.00
51986;BME280;38002;53.296;6.600;2023-12-20T16:59:25;100906.91;;;6.44;100.00
51986;BME280;38002;53.296;6.600;2023-12-20T17:04:25;100897.81;;;6.45;100.00
51986;BME280;38002;53.296;6.600;2023-12-20T17:09:26;100886.75;;;6.48;100.00
51986;BME280;38002;53.296;6.600;2023-12-20T17:14:27;100875.69;;;6.51;100.00
51986;BME280;38002;53.296;6.600;2023-12-20T17:19:27;100871.16;;;6.51;100.00
51986;BME280;38002;53.296;6.600;2023-12-20T17:24:30;100864.59;;;6.54;100.00
51986;BME280;38002;53.296;6.600;2023-12-20T17:29:30;100837.31;;;6.57;100.00
51986;BME280;38002;53.296;6.600;2023-12-20T17:34:31;100824.25;;;6.62;100.00
51986;BME280;38002;53.296;6.600;2023-12-20T17:39:31;100816.31;;;6.70;100.00
51986;BME280;38002;53.296;6.600;2023-12-20T17:44:32;100804.78;;;6.77;100.00
51986;BME280;38002;53.296;6.600;2023-12-20T17:49:32;100796.13;;;6.83;100.00
51986;BME280;38002;53.296;6.600;2023-12-20T17:54:33;100784.78;;;6.90;100.00
51986;BME280;38002;53.296;6.600;2023-12-20T17:59:34;100772.53;;;6.95;100.00
51986;BME280;38002;53.296;6.600;2023-12-20T18:04:34;100752.31;;;6.99;100.00
51986;BME280;38002;53.296;6.600;2023-12-20T18:09:35;100734.81;;;7.03;100.00
51986;BME280;38002;53.296;6.600;2023-12-20T18:14:35;100729.84;;;7.08;100.00
51986;BME280;38002;53.296;6.600;2023-12-20T18:19:36;100719.63;;;7.12;100.00
51986;BME280;38002;53.296;6.600;2023-12-20T18:24:36;100710.38;;;7.14;100.00
51986;BME280;38002;53.296;6.600;2023-12-20T18:29:37;100715.34;;;7.19;100.00
51986;BME280;38002;53.296;6.600;2023-12-20T18:34:37;100702.09;;;7.25;100.00
51986;BME280;38002;53.296;6.600;2023-12-20T18:39:38;100692.41;;;7.33;100.00
51986;BME280;38002;53.296;6.600;2023-12-20T18:44:38;100690.25;;;7.36;100.00
51986;BME280;38002;53.296;6.600;2023-12-20T18:49:39;100681.41;;;7.44;100.00
51986;BME280;38002;53.296;6.600;2023-12-20T18:54:40;100666.28;;;7.51;100.00
51986;BME280;38002;53.296;6.600;2023-12-20T18:59:40;100651.88;;;7.60;100.00
51986;BME280;38002;53.296;6.600;2023-12-20T19:04:41;100651.28;;;7.66;100.00
51986;BME280;38002;53.296;6.600;2023-12-20T19:09:41;100648.00;;;7.72;100.00
51986;BME280;38002;53.296;6.600;2023-12-20T19:14:42;100642.84;;;7.79;100.00
51986;BME280;38002;53.296;6.600;2023-12-20T19:19:43;100637.09;;;7.82;100.00
51986;BME280;38002;53.296;6.600;2023-12-20T19:24:44;100636.66;;;7.86;100.00
51986;BME280;38002;53.296;6.600;2023-12-20T19:29:44;100625.56;;;7.89;100.00
51986;BME280;38002;53.296;6.600;2023-12-20T19:34:45;100614.09;;;7.95;100.00
51986;BME280;38002;53.296;6.600;2023-12-20T19:39:45;100609.94;;;8.01;100.00
51986;BME280;38002;53.296;6.600;2023-12-20T19:44:46;100601.38;;;8.05;100.00
51986;BME280;38002;53.296;6.600;2023-12-20T19:49:47;100594.66;;;8.09;100.00
51986;BME280;38002;53.296;6.600;2023-12-20T19:54:47;100591.47;;;8.14;100.00
51986;BME280;38002;53.296;6.600;2023-12-20T19:59:48;100597.28;;;8.19;100.00
51986;BME280;38002;53.296;6.600;2023-12-20T20:04:48;100593.28;;;8.23;100.00
51986;BME280;38002;53.296;6.600;2023-12-20T20:09:49;100590.38;;;8.25;100.00
51986;BME280;38002;53.296;6.600;2023-12-20T20:14:50;100593.53;;;8.30;100.00
51986;BME280;38002;53.296;6.600;2023-12-20T20:19:50;100587.78;;;8.33;100.00
51986;BME280;38002;53.296;6.600;2023-12-20T20:24:51;100584.94;;;8.34;100.00
51986;BME280;38002;53.296;6.600;2023-12-20T20:29:51;100589.22;;;8.37;100.00
51986;BME280;38002;53.296;6.600;2023-12-20T20:34:53;100570.94;;;8.39;100.00
51986;BME280;38002;53.296;6.600;2023-12-20T20:39:53;100577.72;;;8.43;100.00
51986;BME280;38002;53.296;6.600;2023-12-20T20:44:54;100555.22;;;8.42;100.00
51986;BME280;38002;53.296;6.600;2023-12-20T20:49:54;100553.22;;;8.44;100.00
51986;BME280;38002;53.296;6.600;2023-12-20T20:54:54;100536.09;;;8.44;100.00
51986;BME280;38002;53.296;6.600;2023-12-20T20:59:55;100516.81;;;8.47;100.00
51986;BME280;38002;53.296;6.600;2023-12-20T21:04:56;100530.34;;;8.47;100.00
51986;BME280;38002;53.296;6.600;2023-12-20T21:09:56;100544.63;;;8.49;100.00
51986;BME280;38002;53.296;6.600;2023-12-20T21:14:56;100558.84;;;8.51;100.00
51986;BME280;38002;53.296;6.600;2023-12-20T21:19:57;100559.56;;;8.53;100.00
51986;BME280;38002;53.296;6.600;2023-12-20T21:24:58;100557.50;;;8.55;100.00
51986;BME280;38002;53.296;6.600;2023-12-20T21:29:58;100557.38;;;8.56;100.00
51986;BME280;38002;53.296;6.600;2023-12-20T21:34:59;100558.22;;;8.57;100.00
51986;BME280;38002;53.296;6.600;2023-12-20T21:39:59;100568.75;;;8.60;100.00
51986;BME280;38002;53.296;6.600;2023-12-20T21:45:00;100550.63;;;8.60;100.00
51986;BME280;38002;53.296;6.600;2023-12-20T21:50:01;100539.63;;;8.62;100.00
51986;BME280;38002;53.296;6.600;2023-12-20T21:55:01;100544.88;;;8.63;100.00
51986;BME280;38002;53.296;6.600;2023-12-20T22:00:03;100557.28;;;8.66;100.00
51986;BME280;38002;53.296;6.600;2023-12-20T22:05:04;100549.16;;;8.66;100.00
51986;BME280;38002;53.296;6.600;2023-12-20T22:10:05;100535.28;;;8.69;100.00
51986;BME280;38002;53.296;6.600;2023-12-20T22:15:06;100521.59;;;8.71;100.00
51986;BME280;38002;53.296;6.600;2023-12-20T22:20:07;100495.31;;;8.71;100.00
51986;BME280;38002;53.296;6.600;2023-12-20T22:25:08;100497.34;;;8.69;100.00
51986;BME280;38002;53.296;6.600;2023-12-20T22:30:08;100487.88;;;8.73;100.00
51986;BME280;38002;53.296;6.600;2023-12-20T22:35:09;100491.28;;;8.75;100.00
51986;BME280;38002;53.296;6.600;2023-12-20T22:40:12;100486.88;;;8.74;100.00
51986;BME280;38002;53.296;6.600;2023-12-20T22:45:12;100484.81;;;8.76;100.00
51986;BME280;38002;53.296;6.600;2023-12-20T22:50:13;100471.28;;;8.76;100.00
51986;BME280;38002;53.296;6.600;2023-12-20T22:55:13;100464.53;;;8.80;100.00
51986;BME280;38002;53.296;6.600;2023-12-20T23:00:14;100465.22;;;8.82;100.00
51986;BME280;38002;53.296;6.600;2023-12-20T23:05:21;100453.38;;;8.83;100.00
51986;BME280;38002;53.296;6.600;2023-12-20T23:10:22;100456.94;;;8.84;100.00
51986;BME280;38002;53.296;6.600;2023-12-20T23:15:26;100446.94;;;8.84;100.00
51986;BME280;38002;53.296;6.600;2023-12-20T23:20:27;100439.50;;;8.86;100.00
51986;BME280;38002;53.296;6.600;2023-12-20T23:25:28;100460.19;;;8.87;100.00
51986;BME280;38002;53.296;6.600;2023-12-20T23:30:28;100456.47;;;8.88;100.00
51986;BME280;38002;53.296;6.600;2023-12-20T23:35:29;100459.00;;;8.90;100.00
51986;BME280;38002;53.296;6.600;2023-12-20T23:40:29;100454.41;;;8.90;100.00
51986;BME280;38002;53.296;6.600;2023-12-20T23:45:30;100445.28;;;8.91;100.00
51986;BME280;38002;53.296;6.600;2023-12-20T23:50:32;100427.31;;;8.90;100.00
51986;BME280;38002;53.296;6.600;2023-12-20T23:55:32;100422.59;;;8.92;100.00
